KCON

Concord Municipal Airport

Concord, New Hampshire, USA
METAR KCON 140036Z AUTO 00000KT 10SM BKN029 OVC039 M04/M10 A3056 RMK AO2 T10441100
Observed Flight Rules
Dec-14 @ 00:36 UTC (9 minutes ago) Marginal Visual Flight Rules
Visibility Clouds
10 miles
  • Broken at 2,900' AGL
  • Overcast at 3,900' AGL
Temperatures Readings
Current -4°C / 25°F
Dewpoint -10°C / 14°F
Humidity 63%
Altimeter 30.56" Hg
Pressure 1035 hPa
Elevation 103
METAR KCON 140036Z AUTO 00000KT 10SM BKN029 OVC039 M04/M10 A3056 RMK AO2 T10441100
Observed Flight Rules
Dec-14 @ 00:36 UTC
(9 minutes ago)
MVFR
Clouds
  • Broken at 2,900' AGL
  • Overcast at 3,900' AGL
Temperature Dewpoint
-4°C / 25°F -10°C / 14°F
Humidity Altimeter Pressure
63% 30.56" Hg 1035 hPa